Terminal Aerodrome Forecast
Issued by NWS Shreveport, LA

Home | Current Version | Previous Version | Text Only | Print | Product List | Glossary On
Versions: 1 2 3 4 5 6 7 8 9 10 11 12 13 14 15 16 17
000
FTUS44 KSHV 011500 AAA
TAFTYR
TAF AMD
KTYR 011506Z 0115/0212 21012KT P6SM OVC010
      TEMPO 0115/0117 -SHRA OVC006
     FM011900 30012G20KT P6SM OVC025
     FM012200 32013G24KT P6SM BKN100
     FM020300 34013G24KT P6SM SKC=

USA.gov is the U.S. government's official web portal to all federal, state and local government web resources and services.